Time;durP1;ratioP1;P1;durP2;ratioP2;P2;SDS_P1;SDS_P2;PMS_P1;PMS_P2;Temp;Humidity;BMP_temperature;BMP_pressure;BME280_temperature;BME280_humidity;BME280_pressure;Samples;Min_cycle;Max_cycle;Signal;HPM_P1;HPM_P2
2023/11/14 00:02:35;;;;;;;;;35.50;32.50;;;;;;;;6488908;39;8981;-61
2023/11/14 00:08:44;;;;;;;;;40.50;38.00;;;;;;;;6492455;39;8851;-63
2023/11/14 00:14:48;;;;;;;;;33.25;29.75;;;;;;;;5864897;36;10002511;-62
2023/11/14 00:20:55;;;;;;;;;37.00;36.00;;;;;;;;6492312;39;8897;-62
2023/11/14 00:27:00;;;;;;;;;40.75;34.50;;;;;;;;6491668;39;8869;-62
2023/11/14 00:33:05;;;;;;;;;35.75;31.25;;;;;;;;6490768;46;9065;-62
2023/11/14 00:39:09;;;;;;;;;40.50;36.75;;;;;;;;6492209;39;9656;-61
2023/11/14 00:45:13;;;;;;;;;35.25;33.00;;;;;;;;6490780;46;9069;-62
2023/11/14 00:51:16;;;;;;;;;38.00;34.75;;;;;;;;6491341;39;8863;-62
2023/11/14 00:57:25;;;;;;;;;33.50;33.50;;;;;;;;6490099;31;8967;-61
2023/11/14 01:03:28;;;;;;;;;37.50;36.00;;;;;;;;6490933;39;8958;-61
2023/11/14 01:09:34;;;;;;;;;46.50;40.25;;;;;;;;6491491;39;8931;-60
2023/11/14 01:15:39;;;;;;;;;34.75;31.25;;;;;;;;6490258;46;8998;-62
2023/11/14 01:21:43;;;;;;;;;39.25;37.25;;;;;;;;6491443;39;8889;-61
2023/11/14 01:27:47;;;;;;;;;40.25;39.00;;;;;;;;6489815;39;8884;-60
2023/11/14 01:33:49;;;;;;;;;43.75;39.75;;;;;;;;6491080;31;9534;-62
2023/11/14 01:39:52;;;;;;;;;44.75;42.50;;;;;;;;6490793;31;8961;-63
2023/11/14 01:45:57;;;;;;;;;25.25;23.75;;;;;;;;6491053;31;8889;-61
2023/11/14 01:52:01;;;;;;;;;55.25;46.00;;;;;;;;6490034;39;8829;-63
2023/11/14 01:58:03;;;;;;;;;38.00;36.75;;;;;;;;6489988;46;9017;-61
2023/11/14 02:04:14;;;;;;;;;47.25;43.25;;;;;;;;6489854;39;8884;-61
2023/11/14 02:10:18;;;;;;;;;50.50;41.50;;;;;;;;6491003;39;8893;-62
2023/11/14 02:16:23;;;;;;;;;57.50;45.75;;;;;;;;6490236;39;8934;-61
2023/11/14 02:22:26;;;;;;;;;52.25;46.25;;;;;;;;6491067;39;9509;-62
2023/11/14 02:28:30;;;;;;;;;53.25;43.25;;;;;;;;6489057;39;8927;-62
2023/11/14 02:34:36;;;;;;;;;54.50;48.00;;;;;;;;6490605;39;8951;-60
2023/11/14 02:40:40;;;;;;;;;59.25;46.75;;;;;;;;6490199;39;8904;-64
2023/11/14 02:46:46;;;;;;;;;56.00;47.25;;;;;;;;6488420;39;8903;-61
2023/11/14 02:52:53;;;;;;;;;54.75;44.25;;;;;;;;6490120;39;8841;-62
2023/11/14 02:59:00;;;;;;;;;54.75;47.50;;;;;;;;6489956;39;8949;-63
2023/11/14 03:05:06;;;;;;;;;64.00;49.50;;;;;;;;6490161;39;8868;-62
2023/11/14 03:11:10;;;;;;;;;62.00;50.75;;;;;;;;6489931;39;8882;-62
2023/11/14 03:17:21;;;;;;;;;53.25;45.00;;;;;;;;6489286;39;9620;-62
2023/11/14 03:23:25;;;;;;;;;52.25;43.75;;;;;;;;6490033;47;8920;-62
2023/11/14 03:29:30;;;;;;;;;58.50;48.00;;;;;;;;6490353;39;9169;-62
2023/11/14 03:35:37;;;;;;;;;62.50;50.25;;;;;;;;6490500;31;8931;-62
2023/11/14 03:41:39;;;;;;;;;64.25;50.75;;;;;;;;6488899;31;8904;-63
2023/11/14 03:47:43;;;;;;;;;53.25;45.00;;;;;;;;6488882;46;8918;-62
2023/11/14 03:53:47;;;;;;;;;58.00;47.00;;;;;;;;6489352;39;8887;-62
2023/11/14 03:59:52;;;;;;;;;60.75;50.25;;;;;;;;6488907;47;9046;-62
2023/11/14 04:05:57;;;;;;;;;61.00;48.75;;;;;;;;6491787;39;8831;-62
2023/11/14 04:12:02;;;;;;;;;53.75;43.00;;;;;;;;6490566;39;8869;-63
2023/11/14 04:18:04;;;;;;;;;53.25;46.75;;;;;;;;6490624;39;8962;-61
2023/11/14 04:24:09;;;;;;;;;58.50;49.75;;;;;;;;6490712;31;8989;-62
2023/11/14 04:30:15;;;;;;;;;61.75;48.00;;;;;;;;6491576;39;8940;-62
2023/11/14 04:36:19;;;;;;;;;62.50;49.50;;;;;;;;6489896;46;8897;-62
2023/11/14 04:42:23;;;;;;;;;61.25;50.25;;;;;;;;6490162;46;8926;-63
2023/11/14 04:48:26;;;;;;;;;66.75;53.50;;;;;;;;6491556;39;9499;-62
2023/11/14 04:54:28;;;;;;;;;60.50;50.25;;;;;;;;6490925;46;9035;-61
2023/11/14 05:07:17;;;;;;;;;54.25;45.50;;;;;;;;6481036;39;9019;-64
